Time;durP1;ratioP1;P1;durP2;ratioP2;P2;SDS_P1;SDS_P2;PMS_P1;PMS_P2;Temp;Humidity;BMP_temperature;BMP_pressure;BME280_temperature;BME280_humidity;BME280_pressure;Samples;Min_cycle;Max_cycle;Signal;HPM_P1;HPM_P2
2022/06/04 00:02:02;;;;;;;1.80;1.80;;;21.00;69.60;;;;;;5087707;27;43891;-70
2022/06/04 00:04:30;;;;;;;1.50;1.50;;;21.10;69.40;;;;;;5087177;27;44017;-69
2022/06/04 00:06:58;;;;;;;1.60;1.60;;;21.30;69.00;;;;;;5087603;28;43382;-69
2022/06/04 00:09:26;;;;;;;1.60;1.60;;;21.50;68.50;;;;;;5086815;28;43896;-69
2022/06/04 00:17:26;;;;;;;1.77;1.77;;;22.00;67.00;;;;;;5087411;28;43969;-70
2022/06/04 00:19:54;;;;;;;1.53;1.53;;;22.00;66.40;;;;;;5086295;28;44039;-69
2022/06/04 00:22:22;;;;;;;1.60;1.60;;;22.20;66.10;;;;;;5098353;27;43426;-70
2022/06/04 00:24:50;;;;;;;1.60;1.60;;;22.30;65.70;;;;;;5106747;27;44014;-68
2022/06/04 00:27:19;;;;;;;1.53;1.53;;;22.40;65.40;;;;;;5088457;27;44070;-70
2022/06/04 00:29:48;;;;;;;1.80;1.80;;;22.40;65.10;;;;;;5107902;27;43956;-70
2022/06/04 00:32:17;;;;;;;1.77;1.77;;;22.50;65.00;;;;;;5110037;27;43896;-71
2022/06/04 00:34:45;;;;;;;1.60;1.60;;;22.40;65.10;;;;;;5109434;27;43917;-70
2022/06/04 00:37:13;;;;;;;1.83;1.83;;;22.20;65.50;;;;;;5110301;27;43962;-69
2022/06/04 00:39:42;;;;;;;1.67;1.67;;;22.00;65.90;;;;;;5091033;27;45839;-70
2022/06/04 00:42:12;;;;;;;1.83;1.73;;;21.80;66.20;;;;;;5110212;27;44042;-70
2022/06/04 00:45:16;;;;;;;1.50;1.50;;;21.70;66.80;;;;;;5091509;27;43484;-70
2022/06/04 00:47:45;;;;;;;1.77;1.77;;;21.50;67.20;;;;;;5110148;27;43987;-69
2022/06/04 00:50:14;;;;;;;1.80;1.80;;;21.40;68.40;;;;;;5109263;27;44982;-69
2022/06/04 00:52:43;;;;;;;1.57;1.57;;;21.30;67.90;;;;;;5109656;27;43967;-70
2022/06/04 00:55:11;;;;;;;1.50;1.50;;;21.20;68.10;;;;;;5109755;27;43955;-69
2022/06/04 00:57:55;;;;;;;1.80;1.80;;;21.20;68.40;;;;;;5110241;27;43408;-70
2022/06/04 01:00:25;;;;;;;1.50;1.50;;;21.10;68.40;;;;;;5110116;27;43979;-69
2022/06/04 01:03:11;;;;;;;1.57;1.57;;;21.10;68.60;;;;;;5090011;27;43940;-68
2022/06/04 01:05:51;;;;;;;1.47;1.47;;;21.10;68.70;;;;;;5090164;27;43395;-70
2022/06/04 01:08:40;;;;;;;1.70;1.70;;;21.00;68.70;;;;;;5090486;27;43980;-69
2022/06/04 01:11:13;;;;;;;1.70;1.70;;;21.00;68.80;;;;;;5103218;27;44027;-68
2022/06/04 01:13:56;;;;;;;1.70;1.70;;;21.00;68.80;;;;;;5076691;27;43948;-68
2022/06/04 01:16:27;;;;;;;1.60;1.60;;;21.00;68.90;;;;;;5089905;27;43949;-68
2022/06/04 01:19:01;;;;;;;1.80;1.80;;;21.00;68.90;;;;;;5090324;27;43919;-69
2022/06/04 01:21:32;;;;;;;1.80;1.80;;;21.00;68.90;;;;;;5089955;27;43823;-69
2022/06/04 01:24:20;;;;;;;1.70;1.70;;;21.00;69.00;;;;;;5094325;27;44056;-69
2022/06/04 01:27:02;;;;;;;1.87;1.87;;;21.00;68.90;;;;;;5109426;27;43382;-68
2022/06/04 01:29:32;;;;;;;1.60;1.60;;;21.00;69.00;;;;;;5109724;27;44101;-68
2022/06/04 01:32:03;;;;;;;1.80;1.80;;;21.00;69.60;;;;;;5090324;27;45572;-68
2022/06/04 01:34:35;;;;;;;1.50;1.50;;;21.10;69.40;;;;;;5109006;27;43473;-69
2022/06/04 01:37:05;;;;;;;1.50;1.50;;;21.30;68.80;;;;;;5090591;27;43718;-69
2022/06/04 01:42:20;;;;;;;1.90;1.80;;;21.60;67.80;;;;;;5087034;27;45086;-69
2022/06/04 01:44:48;;;;;;;1.53;1.53;;;21.80;67.20;;;;;;5102572;27;43920;-68
2022/06/04 01:47:16;;;;;;;1.53;1.53;;;22.00;66.80;;;;;;5088682;28;43959;-68
2022/06/04 01:49:45;;;;;;;1.70;1.70;;;22.10;66.30;;;;;;5071325;28;43773;-69
2022/06/04 01:52:17;;;;;;;1.60;1.60;;;22.20;66.00;;;;;;5089323;27;44010;-69
2022/06/04 01:54:49;;;;;;;1.50;1.50;;;22.30;65.70;;;;;;5089063;27;44109;-68
2022/06/04 01:57:23;;;;;;;1.60;1.60;;;22.30;65.30;;;;;;5089384;27;43954;-69
2022/06/04 01:59:52;;;;;;;1.40;1.40;;;22.30;65.40;;;;;;5089654;27;43968;-69
2022/06/04 02:02:22;;;;;;;1.70;1.70;;;22.10;65.70;;;;;;5070688;27;46159;-69
2022/06/04 02:04:52;;;;;;;1.60;1.60;;;22.00;66.20;;;;;;5089014;27;43995;-68
2022/06/04 02:07:33;;;;;;;1.60;1.60;;;21.80;66.60;;;;;;5070522;27;43863;-69
2022/06/04 02:10:10;;;;;;;1.40;1.40;;;21.60;67.00;;;;;;5089547;27;43331;-70
2022/06/04 02:12:40;;;;;;;1.60;1.60;;;21.40;67.40;;;;;;5088834;27;43983;-68
2022/06/04 02:15:09;;;;;;;1.40;1.40;;;21.30;67.70;;;;;;5088725;27;43514;-69
2022/06/04 02:17:38;;;;;;;1.60;1.60;;;21.20;68.70;;;;;;5070368;28;43992;-69
2022/06/04 02:20:07;;;;;;;1.63;1.63;;;21.20;68.30;;;;;;5088918;28;43909;-69
2022/06/04 02:22:35;;;;;;;1.40;1.40;;;21.10;68.40;;;;;;5088857;27;44687;-69
2022/06/04 02:25:04;;;;;;;1.53;1.53;;;21.10;69.30;;;;;;5070479;28;44655;-68
2022/06/04 02:27:32;;;;;;;1.60;1.60;;;21.00;68.60;;;;;;5095252;27;43881;-68
2022/06/04 02:30:01;;;;;;;1.50;1.50;;;21.00;68.80;;;;;;5088909;27;43845;-68
2022/06/04 02:32:34;;;;;;;1.50;1.50;;;21.00;68.80;;;;;;5088262;28;44805;-69
2022/06/04 02:35:03;;;;;;;1.60;1.60;;;21.00;68.80;;;;;;5069776;28;45119;-68
2022/06/04 02:37:35;;;;;;;1.60;1.60;;;21.00;69.00;;;;;;5087898;28;43406;-69
2022/06/04 02:40:07;;;;;;;1.40;1.40;;;21.00;69.00;;;;;;5075217;28;43931;-68
2022/06/04 02:42:36;;;;;;;1.40;1.40;;;21.00;69.10;;;;;;5078532;27;46459;-69
2022/06/04 02:45:07;;;;;;;1.50;1.50;;;20.90;68.90;;;;;;5108005;27;44113;-70
2022/06/04 02:47:38;;;;;;;1.60;1.60;;;20.90;69.00;;;;;;5107322;27;44088;-68
2022/06/04 02:50:08;;;;;;;1.40;1.40;;;20.90;69.20;;;;;;5108566;27;44031;-69
2022/06/04 02:52:36;;;;;;;1.53;1.53;;;21.00;69.80;;;;;;5107682;27;43915;-68
2022/06/04 02:55:07;;;;;;;1.50;1.50;;;21.10;69.40;;;;;;5107665;27;43335;-68
2022/06/04 02:57:37;;;;;;;1.60;1.60;;;21.20;68.90;;;;;;5108001;27;44021;-69
2022/06/04 03:00:08;;;;;;;1.53;1.53;;;21.40;68.50;;;;;;5108351;27;43854;-69
2022/06/04 03:02:36;;;;;;;1.70;1.70;;;21.60;68.00;;;;;;5107632;27;44811;-69
2022/06/04 03:05:10;;;;;;;1.40;1.40;;;21.70;67.30;;;;;;5107769;27;43329;-69
2022/06/04 03:07:39;;;;;;;1.50;1.50;;;21.90;66.90;;;;;;5107901;27;43936;-68
2022/06/04 03:10:09;;;;;;;1.40;1.40;;;22.10;66.40;;;;;;5108240;27;43876;-69
2022/06/04 03:12:37;;;;;;;1.50;1.50;;;22.20;66.00;;;;;;5107755;27;44092;-68
2022/06/04 03:15:11;;;;;;;1.40;1.40;;;22.30;65.60;;;;;;5106926;27;44112;-69
2022/06/04 03:17:39;;;;;;;1.60;1.60;;;22.40;65.70;;;;;;5094437;27;43897;-69
2022/06/04 03:20:08;;;;;;;1.60;1.50;;;22.40;65.00;;;;;;5088400;27;44000;-69
2022/06/04 03:22:36;;;;;;;1.30;1.30;;;22.40;65.00;;;;;;5087784;27;44766;-68
2022/06/04 03:25:05;;;;;;;1.60;1.60;;;22.30;65.20;;;;;;5087643;27;43927;-68
2022/06/04 03:27:33;;;;;;;1.40;1.40;;;22.10;65.70;;;;;;5090268;27;43968;-69
2022/06/04 03:30:03;;;;;;;1.40;1.40;;;21.90;66.10;;;;;;5108110;27;43883;-69
2022/06/04 03:32:32;;;;;;;1.50;1.50;;;21.70;66.50;;;;;;5107325;27;43918;-69
2022/06/04 03:35:00;;;;;;;1.60;1.60;;;21.50;66.90;;;;;;5107508;27;44103;-68
2022/06/04 03:37:28;;;;;;;1.33;1.33;;;21.40;67.30;;;;;;5107745;27;43852;-69
2022/06/04 03:39:56;;;;;;;1.60;1.60;;;21.30;67.70;;;;;;5094975;27;43988;-68
2022/06/04 03:42:24;;;;;;;1.60;1.60;;;21.30;67.90;;;;;;5107466;27;43943;-68
2022/06/04 03:44:52;;;;;;;1.50;1.50;;;21.20;68.10;;;;;;5107242;27;44073;-68
2022/06/04 03:47:22;;;;;;;1.50;1.50;;;21.20;68.30;;;;;;5107008;27;43950;-68
2022/06/04 03:49:54;;;;;;;1.60;1.60;;;21.10;68.40;;;;;;5107720;27;43377;-68
2022/06/04 03:52:22;;;;;;;1.37;1.37;;;21.10;68.50;;;;;;5099236;27;43777;-68
2022/06/04 03:54:53;;;;;;;1.40;1.40;;;21.10;68.60;;;;;;5087428;27;43997;-68
2022/06/04 03:57:40;;;;;;;1.30;1.30;;;21.10;68.70;;;;;;5096252;27;43981;-68
2022/06/04 04:00:11;;;;;;;1.40;1.40;;;21.10;68.80;;;;;;5107520;27;43986;-68
2022/06/04 04:02:45;;;;;;;1.43;1.43;;;21.00;68.70;;;;;;5088464;27;45813;-69
2022/06/04 04:05:16;;;;;;;1.80;1.70;;;21.00;68.80;;;;;;5106468;27;43428;-68
2022/06/04 04:07:44;;;;;;;1.47;1.47;;;21.00;68.80;;;;;;5107271;27;43869;-69
2022/06/04 04:10:15;;;;;;;1.30;1.30;;;21.00;68.80;;;;;;5079627;28;44013;-68
2022/06/04 04:12:43;;;;;;;1.50;1.50;;;21.00;68.80;;;;;;5086950;28;43972;-68
2022/06/04 04:15:11;;;;;;;1.60;1.60;;;21.00;68.80;;;;;;5086696;28;43936;-68
2022/06/04 04:17:40;;;;;;;1.50;1.50;;;21.00;68.80;;;;;;5094135;27;43418;-69
2022/06/04 04:20:10;;;;;;;1.60;1.60;;;21.00;69.30;;;;;;5087896;27;43936;-69
2022/06/04 04:22:40;;;;;;;1.40;1.40;;;21.10;69.40;;;;;;5087338;27;44014;-68
2022/06/04 04:25:09;;;;;;;1.60;1.60;;;21.20;69.00;;;;;;5087710;27;43893;-68
2022/06/04 04:27:37;;;;;;;1.50;1.50;;;21.40;68.50;;;;;;5099644;27;43963;-68
2022/06/04 04:30:06;;;;;;;1.40;1.40;;;21.60;68.00;;;;;;5087593;27;44043;-69
2022/06/04 04:32:34;;;;;;;1.37;1.37;;;21.70;67.40;;;;;;5094352;27;44062;-68
2022/06/04 04:35:02;;;;;;;1.50;1.50;;;21.90;67.00;;;;;;5106504;27;44080;-69
2022/06/04 04:37:37;;;;;;;1.40;1.40;;;22.10;66.60;;;;;;5106748;27;43828;-69
2022/06/04 04:40:08;;;;;;;1.53;1.53;;;22.20;66.00;;;;;;5088417;27;43848;-68
2022/06/04 04:42:36;;;;;;;1.40;1.40;;;22.30;65.60;;;;;;5087811;27;46005;-69
2022/06/04 04:45:07;;;;;;;1.40;1.40;;;22.30;65.30;;;;;;5105821;27;43856;-68
2022/06/04 04:47:37;;;;;;;1.50;1.50;;;22.30;65.30;;;;;;5106649;27;43441;-69
2022/06/04 04:50:06;;;;;;;1.30;1.30;;;22.20;65.70;;;;;;5088504;27;43591;-69
2022/06/04 04:52:34;;;;;;;1.40;1.40;;;22.00;66.10;;;;;;5103106;27;44657;-68
2022/06/04 04:55:02;;;;;;;1.30;1.30;;;21.80;66.40;;;;;;5086353;27;44022;-68
2022/06/04 04:57:32;;;;;;;1.30;1.30;;;21.60;66.70;;;;;;5086920;27;43778;-69
2022/06/04 05:00:00;;;;;;;1.30;1.30;;;21.50;67.20;;;;;;5087449;27;43946;-69
2022/06/04 05:02:27;;;;;;;1.60;1.50;;;21.40;67.50;;;;;;5068192;28;46355;-69
2022/06/04 05:04:55;;;;;;;1.33;1.33;;;21.30;67.70;;;;;;5071853;27;44684;-68
2022/06/04 05:07:26;;;;;;;1.40;1.40;;;21.30;68.10;;;;;;5099633;27;43381;-69
2022/06/04 05:09:54;;;;;;;1.50;1.50;;;21.20;68.20;;;;;;5106678;27;44008;-68
2022/06/04 05:12:22;;;;;;;1.50;1.50;;;21.20;68.40;;;;;;5102278;27;43908;-69
2022/06/04 05:14:52;;;;;;;1.67;1.67;;;21.10;68.40;;;;;;5086479;27;43874;-69
2022/06/04 05:17:20;;;;;;;1.40;1.40;;;21.10;68.50;;;;;;5088797;27;43903;-69
2022/06/04 05:19:52;;;;;;;1.33;1.33;;;21.10;68.70;;;;;;5095255;27;44050;-69
2022/06/04 05:22:20;;;;;;;1.40;1.40;;;21.00;68.60;;;;;;5109533;27;43987;-68
2022/06/04 05:24:51;;;;;;;1.43;1.43;;;21.00;68.70;;;;;;5109487;27;43922;-69
2022/06/04 05:27:19;;;;;;;1.20;1.20;;;21.00;68.80;;;;;;5091002;27;43868;-69
2022/06/04 05:29:47;;;;;;;1.60;1.60;;;21.00;68.80;;;;;;5109957;27;43934;-69
2022/06/04 05:32:17;;;;;;;1.50;1.50;;;21.00;68.90;;;;;;5090989;27;45404;-69
2022/06/04 05:34:45;;;;;;;1.63;1.63;;;21.00;68.90;;;;;;5109159;27;43896;-69
2022/06/04 05:37:13;;;;;;;1.30;1.30;;;21.00;69.30;;;;;;5109200;27;44053;-68
2022/06/04 05:39:41;;;;;;;1.43;1.43;;;21.00;70.20;;;;;;5109867;27;43452;-68
2022/06/04 05:42:10;;;;;;;1.60;1.60;;;21.20;69.40;;;;;;5109479;27;44032;-68
2022/06/04 05:44:38;;;;;;;1.40;1.40;;;21.30;69.60;;;;;;5096814;27;43955;-68
2022/06/04 05:47:06;;;;;;;1.40;1.40;;;21.40;68.30;;;;;;5089304;27;43418;-68
2022/06/04 05:49:35;;;;;;;1.37;1.37;;;21.60;67.90;;;;;;5102383;27;44278;-69
2022/06/04 05:52:04;;;;;;;1.37;1.37;;;21.80;67.40;;;;;;5109182;27;43819;-69
2022/06/04 05:54:32;;;;;;;1.30;1.30;;;21.90;66.90;;;;;;5090290;27;44757;-69
2022/06/04 05:57:00;;;;;;;1.33;1.33;;;22.10;66.50;;;;;;5109191;27;43841;-68
2022/06/04 05:59:28;;;;;;;1.30;1.30;;;22.20;66.10;;;;;;5109754;27;43381;-69
2022/06/04 06:01:56;;;;;;;1.40;1.40;;;22.30;65.80;;;;;;5089781;27;43994;-69
2022/06/04 06:04:26;;;;;;;1.20;1.20;;;22.40;65.40;;;;;;5089363;27;44055;-69
2022/06/04 06:07:00;;;;;;;1.33;1.33;;;22.40;65.80;;;;;;5070954;28;44038;-69
2022/06/04 06:09:28;;;;;;;1.30;1.30;;;22.40;65.00;;;;;;5089923;27;43282;-69
2022/06/04 06:11:56;;;;;;;1.20;1.20;;;22.30;65.20;;;;;;5089261;27;43640;-68
2022/06/04 06:14:24;;;;;;;1.33;1.33;;;22.20;65.80;;;;;;5096359;27;43407;-69
2022/06/04 06:16:53;;;;;;;1.50;1.50;;;21.90;66.10;;;;;;5108302;27;43908;-69
2022/06/04 06:19:22;;;;;;;1.40;1.40;;;21.80;66.40;;;;;;5078158;27;43535;-68
2022/06/04 06:21:50;;;;;;;1.20;1.20;;;21.60;66.80;;;;;;5108679;27;43917;-69
2022/06/04 06:24:21;;;;;;;1.37;1.37;;;21.50;67.20;;;;;;5090028;27;44508;-68
2022/06/04 06:26:50;;;;;;;1.30;1.30;;;21.40;67.50;;;;;;5108151;27;43892;-68
2022/06/04 06:29:18;;;;;;;1.50;1.50;;;21.30;68.50;;;;;;5107564;27;43961;-68
2022/06/04 06:31:48;;;;;;;1.40;1.40;;;21.20;68.00;;;;;;5096853;27;43774;-68
2022/06/04 06:34:16;;;;;;;1.50;1.50;;;21.20;68.20;;;;;;5108712;27;43920;-68
2022/06/04 06:36:46;;;;;;;1.40;1.40;;;21.10;68.30;;;;;;5106585;27;43996;-68
2022/06/04 06:39:18;;;;;;;1.30;1.30;;;21.10;68.50;;;;;;5089178;27;43442;-68
2022/06/04 06:41:47;;;;;;;1.20;1.20;;;21.10;68.70;;;;;;5088643;27;43978;-68
2022/06/04 06:44:18;;;;;;;1.40;1.40;;;21.00;68.60;;;;;;5097736;27;44006;-68
2022/06/04 06:46:53;;;;;;;1.30;1.30;;;21.00;68.80;;;;;;5108271;27;43962;-69
2022/06/04 06:49:22;;;;;;;1.50;1.50;;;21.00;68.80;;;;;;5090018;27;43410;-68
2022/06/04 06:51:51;;;;;;;1.40;1.40;;;21.00;68.90;;;;;;5108175;27;43770;-69
2022/06/04 06:54:21;;;;;;;1.43;1.43;;;21.00;68.90;;;;;;5108224;27;43382;-68
2022/06/04 06:56:53;;;;;;;1.37;1.37;;;21.00;69.10;;;;;;5107712;27;43989;-68
2022/06/04 06:59:23;;;;;;;1.50;1.50;;;21.00;69.10;;;;;;5108442;27;43958;-68
2022/06/04 07:01:51;;;;;;;1.23;1.23;;;20.90;69.00;;;;;;5107903;27;43998;-69
2022/06/04 07:04:21;;;;;;;2.93;2.40;;;21.00;69.00;;;;;;5107983;27;43945;-69
2022/06/04 07:06:50;;;;;;;2.97;2.87;;;20.90;69.60;;;;;;5107810;27;43981;-69
2022/06/04 07:09:19;;;;;;;3.57;3.47;;;21.00;70.30;;;;;;5108457;27;43753;-69
2022/06/04 07:11:48;;;;;;;4.27;2.77;;;21.10;70.30;;;;;;5088426;27;44043;-68
2022/06/04 07:14:17;;;;;;;3.00;2.80;;;21.30;69.80;;;;;;5088132;28;43992;-68
2022/06/04 07:16:45;;;;;;;3.07;2.93;;;21.50;69.20;;;;;;5087989;28;43851;-69
2022/06/04 07:19:13;;;;;;;2.53;2.43;;;21.60;68.40;;;;;;5108099;27;43954;-68
2022/06/04 07:21:41;;;;;;;2.70;2.50;;;21.80;67.80;;;;;;5094379;27;44007;-68
2022/06/04 07:24:09;;;;;;;2.70;2.50;;;22.00;67.40;;;;;;5087843;27;43471;-69
2022/06/04 07:26:37;;;;;;;2.43;2.33;;;22.00;66.70;;;;;;5087661;28;43379;-68
2022/06/04 07:29:07;;;;;;;2.23;2.20;;;22.20;66.40;;;;;;5088270;28;43915;-69
2022/06/04 07:31:35;;;;;;;2.30;2.20;;;22.30;66.10;;;;;;5087833;27;43943;-68
2022/06/04 07:34:03;;;;;;;2.13;2.03;;;22.30;66.00;;;;;;5107241;27;43929;-69
2022/06/04 07:36:33;;;;;;;2.33;2.20;;;22.10;66.10;;;;;;5087508;28;43359;-69
2022/06/04 07:39:01;;;;;;;1.97;1.87;;;22.00;66.70;;;;;;5086848;27;44005;-69
2022/06/04 07:41:30;;;;;;;2.63;1.90;;;21.80;67.00;;;;;;5087523;28;43957;-69
2022/06/04 07:44:01;;;;;;;2.00;2.00;;;21.60;67.30;;;;;;5087081;28;44020;-68
2022/06/04 07:46:30;;;;;;;1.93;1.90;;;21.50;67.70;;;;;;5087618;28;43992;-68
2022/06/04 07:49:00;;;;;;;2.20;2.07;;;21.30;68.00;;;;;;5087212;28;43982;-68
2022/06/04 07:51:28;;;;;;;2.00;2.00;;;21.20;68.30;;;;;;5087364;28;44418;-69
2022/06/04 07:53:56;;;;;;;1.83;1.83;;;21.20;68.60;;;;;;5087197;28;43868;-68
2022/06/04 07:56:24;;;;;;;2.00;2.00;;;21.10;68.80;;;;;;5089255;27;43984;-69
2022/06/04 07:58:52;;;;;;;2.30;2.20;;;21.10;69.00;;;;;;5107595;27;43902;-68
2022/06/04 08:01:22;;;;;;;1.87;1.87;;;21.00;69.10;;;;;;5106898;27;45059;-68
2022/06/04 08:03:53;;;;;;;1.80;1.80;;;21.00;69.20;;;;;;5106847;27;43964;-68
2022/06/04 08:06:22;;;;;;;2.00;2.00;;;21.00;69.30;;;;;;5106936;27;44011;-68
2022/06/04 08:08:51;;;;;;;2.03;2.00;;;20.90;69.20;;;;;;5107542;27;43833;-68
2022/06/04 08:11:35;;;;;;;1.90;1.90;;;20.90;69.30;;;;;;5088491;27;45511;-69
2022/06/04 08:14:08;;;;;;;1.97;1.87;;;20.90;69.30;;;;;;5088471;27;44733;-68
2022/06/04 08:16:37;;;;;;;1.63;1.63;;;20.90;69.40;;;;;;5106760;27;43978;-68
2022/06/04 08:19:07;;;;;;;1.90;1.90;;;20.90;69.40;;;;;;5107207;27;43978;-69
2022/06/04 08:21:36;;;;;;;1.90;1.87;;;20.90;69.40;;;;;;5106846;27;43931;-68
2022/06/04 08:24:05;;;;;;;1.73;1.73;;;20.90;69.50;;;;;;5106987;27;43911;-68
2022/06/04 08:26:33;;;;;;;1.70;1.70;;;20.90;70.10;;;;;;5100162;27;43466;-69
2022/06/04 08:29:01;;;;;;;1.80;1.80;;;21.00;69.90;;;;;;5069276;28;43956;-68
2022/06/04 08:31:29;;;;;;;1.77;1.77;;;21.20;69.50;;;;;;5093512;27;45023;-68
2022/06/04 08:33:57;;;;;;;1.70;1.70;;;21.30;69.10;;;;;;5106883;27;44036;-69
2022/06/04 08:36:26;;;;;;;1.87;1.80;;;21.50;68.60;;;;;;5087936;27;43370;-68
2022/06/04 08:38:54;;;;;;;1.83;1.83;;;21.60;67.90;;;;;;5107310;27;44006;-69
2022/06/04 08:41:34;;;;;;;1.67;1.63;;;21.80;67.40;;;;;;5087945;27;46091;-68
2022/06/04 08:44:05;;;;;;;1.60;1.60;;;22.00;67.00;;;;;;5086646;28;43945;-68
2022/06/04 08:46:35;;;;;;;1.70;1.70;;;22.10;66.50;;;;;;5086536;28;44043;-68
2022/06/04 08:49:05;;;;;;;1.60;1.60;;;22.20;66.10;;;;;;5086492;28;44080;-69
2022/06/04 08:51:35;;;;;;;1.70;1.70;;;22.30;65.80;;;;;;5088997;28;45007;-68
2022/06/04 08:59:41;;;;;;;1.63;1.60;;;22.20;65.70;;;;;;5082916;28;43898;-69
2022/06/04 09:02:12;;;;;;;1.67;1.67;;;22.00;66.20;;;;;;5089693;28;44064;-68
2022/06/04 09:04:46;;;;;;;1.63;1.63;;;21.80;66.60;;;;;;5089844;28;43991;-68
2022/06/04 09:07:18;;;;;;;1.73;1.73;;;21.60;67.00;;;;;;5088487;27;43389;-68
2022/06/04 09:09:47;;;;;;;1.70;1.70;;;21.50;67.60;;;;;;5090781;27;43959;-68
2022/06/04 09:12:30;;;;;;;1.70;1.70;;;21.30;67.90;;;;;;5071506;28;43922;-68
2022/06/04 09:15:00;;;;;;;1.73;1.73;;;21.20;68.20;;;;;;5090329;27;43442;-69
2022/06/04 09:17:35;;;;;;;1.90;1.90;;;21.20;68.60;;;;;;5095960;27;43340;-68
2022/06/04 09:20:06;;;;;;;1.50;1.50;;;21.10;68.80;;;;;;5090431;27;44021;-68
2022/06/04 09:22:36;;;;;;;1.47;1.47;;;21.00;68.90;;;;;;5089961;27;43893;-68
2022/06/04 09:25:06;;;;;;;1.77;1.77;;;21.00;69.00;;;;;;5089837;27;44023;-68
2022/06/04 09:27:37;;;;;;;1.70;1.70;;;21.00;69.30;;;;;;5089509;27;43919;-68
2022/06/04 09:30:11;;;;;;;1.80;1.80;;;20.90;69.20;;;;;;5090186;27;43924;-69
2022/06/04 09:32:50;;;;;;;1.83;1.83;;;20.90;69.20;;;;;;5089715;27;44947;-69
2022/06/04 09:35:19;;;;;;;1.50;1.50;;;20.90;69.30;;;;;;5089711;27;43385;-69
2022/06/04 09:37:49;;;;;;;1.87;1.87;;;20.90;69.40;;;;;;5071161;28;43948;-69
2022/06/04 09:40:21;;;;;;;1.63;1.63;;;20.90;69.40;;;;;;5107951;27;43941;-68
2022/06/04 09:42:49;;;;;;;1.70;1.70;;;20.90;69.40;;;;;;5097968;27;44091;-69
2022/06/04 09:45:37;;;;;;;1.70;1.70;;;20.90;69.40;;;;;;5089581;27;44080;-68
2022/06/04 09:48:14;;;;;;;1.77;1.77;;;20.90;69.40;;;;;;5089444;27;43365;-68
2022/06/04 09:50:42;;;;;;;1.70;1.70;;;20.90;69.40;;;;;;5071529;27;43471;-68
2022/06/04 09:53:19;;;;;;;1.70;1.70;;;20.90;69.40;;;;;;5089425;27;43976;-68
2022/06/04 09:55:49;;;;;;;1.60;1.60;;;20.90;70.00;;;;;;5070994;27;44750;-68
2022/06/04 09:58:19;;;;;;;1.70;1.70;;;21.00;69.90;;;;;;5089627;27;43985;-69
2022/06/04 10:00:55;;;;;;;1.53;1.53;;;21.20;69.50;;;;;;5089918;27;44022;-68
2022/06/04 10:03:23;;;;;;;1.80;1.80;;;21.40;69.00;;;;;;5088161;27;43914;-70
2022/06/04 10:05:52;;;;;;;1.63;1.63;;;21.50;68.40;;;;;;5089422;27;43391;-69
2022/06/04 10:08:24;;;;;;;1.53;1.53;;;21.70;68.00;;;;;;5077678;28;44013;-68
2022/06/04 10:10:58;;;;;;;1.50;1.50;;;21.80;67.40;;;;;;5089754;27;43903;-68
2022/06/04 10:13:47;;;;;;;1.80;1.80;;;22.00;67.00;;;;;;5089097;28;43967;-69
2022/06/04 10:16:16;;;;;;;1.47;1.47;;;22.10;66.60;;;;;;5098361;27;44386;-68
2022/06/04 10:18:55;;;;;;;1.50;1.50;;;22.20;66.10;;;;;;5108881;27;43416;-69
2022/06/04 10:21:24;;;;;;;1.60;1.60;;;22.30;65.80;;;;;;5109199;27;43888;-69
2022/06/04 10:23:55;;;;;;;1.70;1.70;;;22.20;65.90;;;;;;5090733;27;44939;-69
2022/06/04 10:26:40;;;;;;;1.70;1.70;;;22.10;66.30;;;;;;5093979;27;44127;-68
2022/06/04 10:29:40;;;;;;;1.53;1.53;;;21.90;66.70;;;;;;5088538;28;43882;-68
2022/06/04 10:32:12;;;;;;;1.50;1.50;;;21.70;67.10;;;;;;5070812;28;43979;-68
2022/06/04 10:35:03;;;;;;;1.40;1.40;;;21.50;67.60;;;;;;5088732;27;44446;-68
2022/06/04 10:37:41;;;;;;;1.77;1.63;;;21.40;68.10;;;;;;5088345;27;43975;-69
2022/06/04 10:40:25;;;;;;;1.50;1.50;;;21.30;68.30;;;;;;5070208;27;44060;-68
2022/06/04 10:42:57;;;;;;;1.60;1.60;;;21.20;68.60;;;;;;5089242;27;44010;-69
2022/06/04 10:45:26;;;;;;;1.60;1.60;;;21.20;68.80;;;;;;5088783;27;44385;-68
2022/06/04 10:47:56;;;;;;;1.40;1.40;;;21.10;69.00;;;;;;5088145;27;43892;-68
2022/06/04 10:50:31;;;;;;;1.70;1.70;;;21.10;69.10;;;;;;5088132;28;44029;-68
2022/06/04 10:53:02;;;;;;;1.70;1.70;;;21.00;69.20;;;;;;5088850;28;43939;-68
2022/06/04 10:55:39;;;;;;;2.57;2.00;;;21.00;69.30;;;;;;5088118;28;43895;-69
2022/06/04 10:58:21;;;;;;;1.87;1.87;;;21.00;69.30;;;;;;5087908;28;44016;-68
2022/06/04 11:00:51;;;;;;;1.70;1.70;;;21.00;69.30;;;;;;5069480;28;43405;-68
2022/06/04 11:03:21;;;;;;;1.77;1.77;;;21.00;69.50;;;;;;5106707;27;43983;-69
2022/06/04 11:05:50;;;;;;;1.90;1.90;;;21.00;69.50;;;;;;5108001;27;43981;-69
2022/06/04 11:08:21;;;;;;;2.10;2.00;;;21.00;69.50;;;;;;5107455;27;44063;-68
2022/06/04 11:10:52;;;;;;;1.90;1.90;;;21.00;69.50;;;;;;5102612;27;43881;-69
2022/06/04 11:13:22;;;;;;;2.00;1.90;;;21.00;69.50;;;;;;5070206;28;43419;-70
2022/06/04 11:15:55;;;;;;;1.83;1.83;;;21.00;70.30;;;;;;5093653;27;44059;-68
2022/06/04 11:18:26;;;;;;;2.10;1.90;;;21.00;69.60;;;;;;5101375;27;43892;-69
2022/06/04 11:20:56;;;;;;;1.93;1.90;;;21.00;69.50;;;;;;5107875;27;43910;-69
2022/06/04 11:23:31;;;;;;;2.23;2.13;;;21.00;69.60;;;;;;5089628;27;43448;-69
2022/06/04 11:26:03;;;;;;;1.97;1.97;;;21.00;69.60;;;;;;5107941;27;44804;-69
2022/06/04 11:28:31;;;;;;;2.00;1.90;;;21.00;69.60;;;;;;5092118;27;43874;-68
2022/06/04 11:31:16;;;;;;;2.00;2.00;;;21.00;69.50;;;;;;5088410;27;43358;-68
2022/06/04 11:33:53;;;;;;;2.20;2.10;;;21.00;69.60;;;;;;5088315;27;43365;-68
2022/06/04 11:36:24;;;;;;;2.10;2.00;;;21.00;69.70;;;;;;5087738;27;44151;-69
2022/06/04 11:39:00;;;;;;;1.53;1.53;;;21.00;71.00;;;;;;5087727;27;43861;-69
2022/06/04 11:41:33;;;;;;;1.90;1.90;;;21.20;69.80;;;;;;5088478;27;44021;-69
2022/06/04 11:44:21;;;;;;;1.97;1.90;;;21.40;69.40;;;;;;5099922;27;43895;-68
2022/06/04 11:46:56;;;;;;;2.10;2.10;;;21.60;68.70;;;;;;5087464;27;43940;-69
2022/06/04 11:49:33;;;;;;;1.70;1.70;;;21.80;68.00;;;;;;5087470;27;43954;-69
2022/06/04 11:52:06;;;;;;;2.10;2.03;;;22.00;67.40;;;;;;5108018;27;43636;-69
2022/06/04 11:54:44;;;;;;;1.70;1.70;;;22.20;67.00;;;;;;5107641;27;43396;-69
2022/06/04 11:57:17;;;;;;;1.60;1.60;;;22.40;66.40;;;;;;5097926;27;44109;-68
2022/06/04 11:59:53;;;;;;;1.83;1.83;;;22.50;65.90;;;;;;5087596;27;43980;-69
2022/06/04 12:02:24;;;;;;;1.90;1.90;;;22.70;65.60;;;;;;5087384;27;43348;-69
2022/06/04 12:05:00;;;;;;;1.77;1.77;;;22.70;65.30;;;;;;5069534;28;44163;-70
2022/06/04 12:07:34;;;;;;;1.63;1.63;;;22.80;65.00;;;;;;5106234;27;44769;-69
2022/06/04 12:10:05;;;;;;;1.70;1.70;;;22.80;64.70;;;;;;5094340;27;43965;-69
2022/06/04 12:12:38;;;;;;;1.80;1.80;;;22.90;64.50;;;;;;5100885;27;43899;-69
2022/06/04 12:15:14;;;;;;;1.67;1.67;;;22.90;64.30;;;;;;5107304;27;43858;-69
2022/06/04 12:17:44;;;;;;;1.60;1.60;;;23.00;64.30;;;;;;5087120;27;43616;-70
2022/06/04 12:26:19;;;;;;;2.20;2.10;;;22.80;64.80;;;;;;5082832;27;43886;-69
2022/06/04 12:28:49;;;;;;;1.60;1.60;;;22.50;65.30;;;;;;5103631;27;43911;-69
2022/06/04 12:31:27;;;;;;;1.80;1.80;;;22.30;65.80;;;;;;5110527;27;43412;-68
2022/06/04 12:33:55;;;;;;;1.97;1.97;;;22.10;66.30;;;;;;5110774;27;43942;-69
2022/06/04 12:36:25;;;;;;;1.70;1.70;;;21.90;66.90;;;;;;5090379;28;44008;-69
2022/06/04 12:39:00;;;;;;;1.93;1.83;;;21.70;67.30;;;;;;5090430;27;43979;-69
2022/06/04 12:41:43;;;;;;;1.80;1.80;;;21.60;67.70;;;;;;5090806;27;43925;-69
2022/06/04 12:44:36;;;;;;;1.80;1.80;;;21.50;68.10;;;;;;5072194;27;43919;-69
2022/06/04 12:47:12;;;;;;;1.73;1.73;;;21.40;68.40;;;;;;5093735;27;43888;-68
2022/06/04 12:49:47;;;;;;;1.50;1.50;;;21.30;68.70;;;;;;5110128;27;44215;-69
2022/06/04 12:52:38;;;;;;;1.70;1.70;;;21.20;68.80;;;;;;5110053;27;43850;-69
2022/06/04 12:55:16;;;;;;;1.90;1.90;;;21.20;68.90;;;;;;5110418;27;43491;-69
2022/06/04 12:57:47;;;;;;;1.83;1.83;;;21.20;69.00;;;;;;5090595;28;43932;-69
2022/06/04 13:00:39;;;;;;;1.47;1.47;;;21.20;69.10;;;;;;5071870;28;45668;-68
2022/06/04 13:03:32;;;;;;;1.60;1.60;;;21.10;69.20;;;;;;5090107;28;43993;-68
2022/06/04 13:06:23;;;;;;;1.60;1.60;;;21.10;70.10;;;;;;5090744;27;43997;-69
2022/06/04 13:08:56;;;;;;;1.70;1.70;;;21.20;70.10;;;;;;5110258;27;44025;-68
2022/06/04 13:11:52;;;;;;;1.67;1.67;;;21.30;69.70;;;;;;5109796;27;44061;-69
2022/06/04 13:14:26;;;;;;;1.50;1.50;;;21.40;69.40;;;;;;5084828;27;44074;-69
2022/06/04 13:16:57;;;;;;;1.63;1.63;;;21.60;68.80;;;;;;5108164;27;43935;-68
2022/06/04 13:19:43;;;;;;;1.80;1.80;;;21.80;68.40;;;;;;5092705;27;44033;-68
2022/06/04 13:22:16;;;;;;;1.50;1.50;;;22.00;67.80;;;;;;5109501;27;43889;-68
2022/06/04 13:24:44;;;;;;;1.70;1.70;;;22.10;67.20;;;;;;5109636;27;44017;-68
2022/06/04 13:27:13;;;;;;;1.70;1.70;;;22.30;66.90;;;;;;5109697;27;43811;-69
2022/06/04 13:29:41;;;;;;;1.57;1.57;;;22.30;66.30;;;;;;5091359;27;44249;-68
2022/06/04 13:32:15;;;;;;;1.50;1.50;;;22.40;66.10;;;;;;5109433;27;43990;-69